Time;durP1;ratioP1;P1;durP2;ratioP2;P2;SDS_P1;SDS_P2;PMS_P1;PMS_P2;Temp;Humidity;BMP_temperature;BMP_pressure;BME280_temperature;BME280_humidity;BME280_pressure;Samples;Min_cycle;Max_cycle;Signal;HPM_P1;HPM_P2
2021/03/07 00:01:48;;;;;;;4.72;2.75;;;;;;;;;;5007767;28;20042;-73
2021/03/07 00:04:13;;;;;;;3.45;2.95;;;;;;;;;;5024232;28;20386;-73
2021/03/07 00:06:38;;;;;;;3.80;2.70;;;;;;;;;;5023838;28;20420;-73
2021/03/07 00:09:05;;;;;;;4.93;2.85;;;;;;;;;;5006006;28;20413;-73
2021/03/07 00:11:30;;;;;;;5.55;3.53;;;;;;;;;;4960614;28;20043;-73
2021/03/07 00:13:56;;;;;;;5.47;3.10;;;;;;;;;;5016791;28;20058;-73
2021/03/07 00:16:21;;;;;;;4.53;2.95;;;;;;;;;;4988291;28;20049;-73
2021/03/07 00:18:47;;;;;;;4.05;2.88;;;;;;;;;;5001455;28;20420;-73
2021/03/07 00:21:12;;;;;;;5.05;3.00;;;;;;;;;;4994564;28;20072;-73
2021/03/07 00:23:38;;;;;;;4.60;3.03;;;;;;;;;;4993980;28;20523;-73
2021/03/07 00:26:03;;;;;;;4.25;2.65;;;;;;;;;;4991043;28;20066;-73
2021/03/07 00:28:29;;;;;;;3.72;2.63;;;;;;;;;;4974947;28;20424;-73
2021/03/07 00:30:54;;;;;;;4.50;3.28;;;;;;;;;;5007509;28;20046;-73
2021/03/07 00:33:20;;;;;;;5.47;3.38;;;;;;;;;;4992304;28;20534;-73
2021/03/07 00:35:45;;;;;;;6.15;3.72;;;;;;;;;;4992231;28;20054;-73
2021/03/07 00:38:10;;;;;;;3.70;2.78;;;;;;;;;;5007084;28;20468;-73
2021/03/07 00:40:36;;;;;;;4.38;3.20;;;;;;;;;;5007753;28;20050;-73
2021/03/07 00:43:01;;;;;;;3.88;2.88;;;;;;;;;;5023882;28;20408;-73
2021/03/07 00:45:27;;;;;;;4.90;3.25;;;;;;;;;;5007545;28;20429;-73
2021/03/07 00:47:52;;;;;;;6.00;3.53;;;;;;;;;;5023600;28;20030;-73
2021/03/07 00:50:23;;;;;;;4.63;3.38;;;;;;;;;;4990618;28;20133;-73
2021/03/07 00:52:48;;;;;;;5.95;3.28;;;;;;;;;;5007133;28;20045;-73
2021/03/07 00:55:14;;;;;;;3.80;2.85;;;;;;;;;;5007327;28;20038;-73
2021/03/07 00:57:39;;;;;;;8.45;3.90;;;;;;;;;;5007408;28;20026;-73
2021/03/07 01:00:13;;;;;;;5.93;3.22;;;;;;;;;;5007103;28;20077;-73
2021/03/07 01:02:39;;;;;;;5.47;3.20;;;;;;;;;;5006908;28;20034;-73
2021/03/07 01:05:05;;;;;;;4.60;3.40;;;;;;;;;;4976927;28;20042;-73
2021/03/07 01:07:31;;;;;;;5.10;3.63;;;;;;;;;;5003911;28;20057;-73
2021/03/07 01:09:56;;;;;;;5.75;3.58;;;;;;;;;;4987682;28;20557;-73
2021/03/07 01:12:21;;;;;;;5.78;3.45;;;;;;;;;;4987881;28;20035;-73
2021/03/07 01:14:47;;;;;;;6.03;3.50;;;;;;;;;;5004622;28;20065;-73
2021/03/07 01:17:12;;;;;;;4.97;3.63;;;;;;;;;;4992604;28;20038;-73
2021/03/07 01:19:38;;;;;;;4.20;3.17;;;;;;;;;;4996995;28;20416;-73
2021/03/07 01:22:03;;;;;;;4.43;3.22;;;;;;;;;;5014427;28;20060;-73
2021/03/07 01:24:29;;;;;;;5.20;4.15;;;;;;;;;;5011032;28;20109;-73
2021/03/07 01:26:54;;;;;;;5.32;3.50;;;;;;;;;;5010999;28;20037;-73
2021/03/07 01:29:20;;;;;;;5.45;4.03;;;;;;;;;;5027086;28;20038;-73
2021/03/07 01:31:45;;;;;;;4.78;3.63;;;;;;;;;;5027333;28;20065;-72
2021/03/07 01:34:11;;;;;;;6.43;4.22;;;;;;;;;;5026939;28;20501;-73
2021/03/07 01:36:36;;;;;;;5.10;3.90;;;;;;;;;;5010608;28;20104;-73
2021/03/07 01:39:03;;;;;;;5.68;4.25;;;;;;;;;;5010391;28;20042;-73
2021/03/07 01:41:29;;;;;;;5.20;3.67;;;;;;;;;;5027485;28;20519;-73
2021/03/07 01:43:54;;;;;;;5.47;4.10;;;;;;;;;;4994145;28;20117;-72
2021/03/07 01:46:20;;;;;;;6.50;4.28;;;;;;;;;;5010695;28;20085;-73
2021/03/07 01:48:48;;;;;;;5.55;3.83;;;;;;;;;;5026389;28;20468;-73
2021/03/07 01:51:14;;;;;;;5.90;4.28;;;;;;;;;;5025931;28;20465;-72
2021/03/07 01:53:39;;;;;;;5.60;4.07;;;;;;;;;;5010376;28;20088;-73
2021/03/07 01:56:05;;;;;;;5.13;3.92;;;;;;;;;;5027047;28;20125;-73
2021/03/07 01:58:33;;;;;;;5.18;3.85;;;;;;;;;;5002507;28;20452;-73
2021/03/07 02:00:59;;;;;;;4.10;3.60;;;;;;;;;;4974386;28;20042;-73
2021/03/07 02:03:24;;;;;;;5.53;3.97;;;;;;;;;;4990502;28;20046;-72
2021/03/07 02:05:50;;;;;;;5.28;3.88;;;;;;;;;;4974374;28;20073;-73
2021/03/07 02:08:16;;;;;;;5.28;3.92;;;;;;;;;;4990296;28;20122;-73
2021/03/07 02:10:43;;;;;;;6.82;4.03;;;;;;;;;;4990941;28;20042;-73
2021/03/07 02:13:24;;;;;;;7.15;3.90;;;;;;;;;;5016841;28;20528;-72
2021/03/07 02:15:53;;;;;;;5.38;3.92;;;;;;;;;;5009390;28;20036;-73
2021/03/07 02:18:19;;;;;;;5.38;4.53;;;;;;;;;;4993114;28;20049;-73
2021/03/07 02:20:58;;;;;;;5.45;4.22;;;;;;;;;;5008818;28;20420;-72
2021/03/07 02:23:24;;;;;;;5.00;3.83;;;;;;;;;;5023457;28;20046;-73
2021/03/07 02:25:51;;;;;;;5.68;3.80;;;;;;;;;;4990462;28;20045;-73
2021/03/07 02:28:16;;;;;;;6.00;3.90;;;;;;;;;;5005291;28;20141;-73
2021/03/07 02:30:42;;;;;;;5.22;3.35;;;;;;;;;;5005144;28;20509;-73
2021/03/07 02:33:18;;;;;;;6.93;4.25;;;;;;;;;;5005459;28;20045;-73
2021/03/07 02:35:49;;;;;;;6.00;4.30;;;;;;;;;;4999587;28;20027;-73
2021/03/07 02:38:16;;;;;;;6.95;4.57;;;;;;;;;;4988207;28;20505;-73
2021/03/07 02:40:42;;;;;;;6.75;3.70;;;;;;;;;;5005109;28;20031;-73
2021/03/07 02:43:10;;;;;;;5.30;4.10;;;;;;;;;;4988803;28;20100;-73
2021/03/07 02:45:35;;;;;;;6.78;5.05;;;;;;;;;;5004898;28;20031;-73
2021/03/07 02:48:01;;;;;;;5.35;3.97;;;;;;;;;;4988203;28;20409;-73
2021/03/07 02:50:28;;;;;;;6.80;4.47;;;;;;;;;;5004946;28;20043;-73
2021/03/07 02:53:05;;;;;;;6.07;4.55;;;;;;;;;;4988599;28;20043;-72
2021/03/07 02:55:31;;;;;;;6.43;4.32;;;;;;;;;;4988460;28;20035;-73
2021/03/07 02:58:01;;;;;;;6.70;4.38;;;;;;;;;;5004874;28;20494;-73
2021/03/07 03:00:26;;;;;;;7.03;4.93;;;;;;;;;;5004989;28;20487;-73
2021/03/07 03:02:51;;;;;;;5.78;4.50;;;;;;;;;;4988383;28;20043;-73
2021/03/07 03:05:17;;;;;;;6.38;4.35;;;;;;;;;;4988451;28;20409;-73
2021/03/07 03:07:42;;;;;;;5.90;4.35;;;;;;;;;;4972428;28;20411;-73
2021/03/07 03:10:08;;;;;;;4.57;3.80;;;;;;;;;;4988379;28;20039;-73
2021/03/07 03:12:35;;;;;;;5.78;4.35;;;;;;;;;;4988729;28;20141;-73
2021/03/07 03:15:01;;;;;;;8.07;4.07;;;;;;;;;;5023666;28;20589;-72
2021/03/07 03:17:26;;;;;;;6.07;4.28;;;;;;;;;;5007673;28;20121;-73
2021/03/07 03:19:52;;;;;;;6.03;4.03;;;;;;;;;;4984660;28;670543;-72
2021/03/07 03:22:18;;;;;;;6.05;4.38;;;;;;;;;;5025058;28;20689;-72
2021/03/07 03:24:43;;;;;;;5.05;3.95;;;;;;;;;;5025147;28;20065;-73
2021/03/07 03:27:11;;;;;;;7.18;4.25;;;;;;;;;;5008634;28;20038;-73
2021/03/07 03:29:37;;;;;;;4.70;3.75;;;;;;;;;;5001164;28;20114;-72
2021/03/07 03:32:03;;;;;;;5.53;4.20;;;;;;;;;;4972613;28;20130;-73
2021/03/07 03:34:29;;;;;;;5.53;4.40;;;;;;;;;;5004903;28;20554;-73
2021/03/07 03:36:54;;;;;;;4.85;3.85;;;;;;;;;;5005522;28;20034;-73
2021/03/07 03:39:21;;;;;;;6.20;4.10;;;;;;;;;;5005157;28;20455;-72
2021/03/07 03:41:48;;;;;;;5.72;4.20;;;;;;;;;;5004798;28;20089;-73
2021/03/07 03:44:15;;;;;;;5.70;4.05;;;;;;;;;;4988682;28;20039;-73
2021/03/07 03:46:41;;;;;;;6.18;4.45;;;;;;;;;;4972333;28;20138;-72
2021/03/07 03:49:37;;;;;;;6.20;4.40;;;;;;;;;;5004483;28;20493;-73
2021/03/07 03:52:04;;;;;;;5.93;4.68;;;;;;;;;;4987193;28;20127;-73
2021/03/07 03:54:30;;;;;;;6.60;4.97;;;;;;;;;;5004879;28;20521;-73
2021/03/07 03:56:57;;;;;;;5.80;5.07;;;;;;;;;;5004957;28;20046;-72
2021/03/07 03:59:22;;;;;;;5.78;3.97;;;;;;;;;;5004725;28;20097;-72
2021/03/07 04:01:48;;;;;;;5.30;4.15;;;;;;;;;;5005183;28;20448;-72
2021/03/07 04:04:13;;;;;;;7.47;4.00;;;;;;;;;;5004462;28;20520;-73
2021/03/07 04:06:39;;;;;;;5.65;4.50;;;;;;;;;;5005214;28;20049;-72
2021/03/07 04:09:06;;;;;;;5.00;3.90;;;;;;;;;;5023966;28;20026;-73
2021/03/07 04:11:32;;;;;;;5.45;3.92;;;;;;;;;;5007901;28;20097;-72
2021/03/07 04:13:57;;;;;;;5.38;3.70;;;;;;;;;;5022983;28;20045;-73
2021/03/07 04:16:23;;;;;;;6.53;4.25;;;;;;;;;;4991514;28;20520;-73
2021/03/07 04:18:48;;;;;;;6.00;4.75;;;;;;;;;;5007169;28;20046;-73
2021/03/07 04:21:13;;;;;;;6.40;4.60;;;;;;;;;;4991523;28;20068;-72
2021/03/07 04:23:39;;;;;;;5.50;4.03;;;;;;;;;;4990999;28;20404;-73
2021/03/07 04:26:04;;;;;;;5.57;4.20;;;;;;;;;;4988319;28;20038;-73
2021/03/07 04:28:30;;;;;;;5.65;4.15;;;;;;;;;;4971816;28;20074;-73
2021/03/07 04:30:55;;;;;;;5.25;3.90;;;;;;;;;;5004386;28;20461;-73
2021/03/07 04:33:21;;;;;;;5.88;4.15;;;;;;;;;;4987882;28;20456;-73
2021/03/07 04:35:46;;;;;;;6.20;3.90;;;;;;;;;;4988342;28;20042;-73
2021/03/07 04:38:12;;;;;;;6.65;4.78;;;;;;;;;;5004058;28;20042;-73
2021/03/07 04:40:38;;;;;;;5.68;4.32;;;;;;;;;;5004257;28;20405;-73
2021/03/07 04:43:04;;;;;;;5.47;4.15;;;;;;;;;;4971340;28;20089;-73
2021/03/07 04:45:29;;;;;;;6.10;3.90;;;;;;;;;;4987897;28;20466;-72
2021/03/07 04:47:55;;;;;;;6.13;4.32;;;;;;;;;;4987480;28;20039;-72
2021/03/07 04:50:20;;;;;;;5.32;4.10;;;;;;;;;;5004048;28;20461;-73
2021/03/07 04:52:46;;;;;;;5.35;3.97;;;;;;;;;;5003418;28;20058;-73
2021/03/07 04:55:12;;;;;;;6.72;3.72;;;;;;;;;;4987729;28;20062;-72
2021/03/07 04:57:37;;;;;;;4.68;3.45;;;;;;;;;;4987350;28;20039;-72
2021/03/07 05:00:05;;;;;;;6.80;4.45;;;;;;;;;;5020414;28;20046;-73
2021/03/07 05:02:30;;;;;;;5.55;3.88;;;;;;;;;;4991995;28;20090;-73
2021/03/07 05:04:56;;;;;;;5.03;4.15;;;;;;;;;;5004143;28;20077;-73
2021/03/07 05:07:22;;;;;;;5.78;3.90;;;;;;;;;;5003710;28;20512;-73
2021/03/07 05:09:47;;;;;;;5.40;4.28;;;;;;;;;;5003831;28;20038;-72
2021/03/07 05:12:13;;;;;;;5.82;3.65;;;;;;;;;;5003765;28;20532;-72
2021/03/07 05:14:38;;;;;;;5.82;3.67;;;;;;;;;;5003471;28;20050;-73
2021/03/07 05:17:04;;;;;;;5.90;4.05;;;;;;;;;;5008059;28;20030;-72
2021/03/07 05:19:29;;;;;;;5.20;4.05;;;;;;;;;;5009773;28;20046;-72
2021/03/07 05:21:55;;;;;;;5.03;3.75;;;;;;;;;;4994461;28;20042;-73
2021/03/07 05:24:20;;;;;;;6.10;3.92;;;;;;;;;;4990509;28;20042;-73
2021/03/07 05:26:45;;;;;;;6.07;3.90;;;;;;;;;;4990305;28;20065;-73
2021/03/07 05:29:11;;;;;;;5.47;4.10;;;;;;;;;;5023391;28;20447;-72
2021/03/07 05:31:36;;;;;;;5.03;3.60;;;;;;;;;;4990639;28;20058;-72
2021/03/07 05:34:02;;;;;;;6.15;4.03;;;;;;;;;;4974320;28;20515;-73
2021/03/07 05:36:27;;;;;;;5.20;4.13;;;;;;;;;;5007432;28;20034;-73
2021/03/07 05:38:54;;;;;;;4.97;3.75;;;;;;;;;;5006891;28;20126;-72
2021/03/07 05:41:19;;;;;;;5.75;3.83;;;;;;;;;;4990342;28;20035;-72
2021/03/07 05:43:47;;;;;;;6.55;4.25;;;;;;;;;;5023479;28;20044;-73
2021/03/07 05:46:12;;;;;;;5.97;4.10;;;;;;;;;;4974546;28;20513;-72
2021/03/07 05:48:38;;;;;;;5.32;3.65;;;;;;;;;;5022799;28;20034;-73
2021/03/07 05:51:03;;;;;;;4.75;3.63;;;;;;;;;;5006869;28;20058;-73
2021/03/07 05:53:31;;;;;;;5.50;3.90;;;;;;;;;;5023398;28;20046;-72
2021/03/07 05:55:56;;;;;;;5.13;3.75;;;;;;;;;;5005270;28;20116;-73
2021/03/07 05:58:21;;;;;;;4.45;3.35;;;;;;;;;;5023223;28;20027;-73
2021/03/07 06:00:47;;;;;;;4.82;3.40;;;;;;;;;;5006848;28;20042;-72
2021/03/07 06:03:12;;;;;;;4.75;3.47;;;;;;;;;;5023028;28;20451;-72
2021/03/07 06:05:38;;;;;;;4.95;3.72;;;;;;;;;;5026966;28;20108;-73
2021/03/07 06:08:04;;;;;;;6.10;4.20;;;;;;;;;;5010034;28;20556;-73
2021/03/07 06:10:29;;;;;;;6.60;3.65;;;;;;;;;;5026239;28;20034;-72
2021/03/07 06:13:02;;;;;;;6.10;4.72;;;;;;;;;;5024895;28;20526;-72
2021/03/07 06:15:28;;;;;;;4.60;3.70;;;;;;;;;;4974859;28;20062;-73
2021/03/07 06:17:53;;;;;;;5.72;3.70;;;;;;;;;;4997682;28;20045;-72
2021/03/07 06:20:26;;;;;;;5.70;4.28;;;;;;;;;;5009681;28;20125;-72
2021/03/07 06:22:51;;;;;;;;;;;;;;;;;;4994025;28;20453;-72
2021/03/07 06:25:16;;;;;;;5.43;3.90;;;;;;;;;;4980917;28;20045;-73
2021/03/07 06:27:42;;;;;;;5.03;3.38;;;;;;;;;;5023257;28;20501;-73
2021/03/07 06:30:08;;;;;;;5.82;3.47;;;;;;;;;;5006303;28;20038;-73
2021/03/07 06:32:54;;;;;;;6.47;3.88;;;;;;;;;;4975260;28;20038;-72
2021/03/07 06:35:28;;;;;;;5.70;4.25;;;;;;;;;;4973621;28;20066;-72
2021/03/07 06:38:00;;;;;;;4.72;3.42;;;;;;;;;;5006339;28;20387;-73
2021/03/07 06:40:39;;;;;;;4.43;3.53;;;;;;;;;;4974986;28;20150;-72
2021/03/07 06:43:24;;;;;;;5.53;4.13;;;;;;;;;;5006501;28;20030;-72
2021/03/07 06:45:49;;;;;;;5.25;3.40;;;;;;;;;;5001785;28;20042;-72
2021/03/07 06:48:15;;;;;;;5.60;3.80;;;;;;;;;;4989276;28;20038;-73
2021/03/07 06:50:54;;;;;;;4.60;3.10;;;;;;;;;;4993571;28;20077;-72
2021/03/07 06:53:32;;;;;;;4.60;3.30;;;;;;;;;;4989930;28;20066;-73
2021/03/07 06:55:57;;;;;;;5.53;3.60;;;;;;;;;;5006238;28;20046;-73
2021/03/07 06:58:23;;;;;;;5.00;3.80;;;;;;;;;;4989824;28;20386;-73
2021/03/07 07:00:48;;;;;;;5.50;3.13;;;;;;;;;;5005925;28;20394;-73
2021/03/07 07:03:15;;;;;;;4.88;3.10;;;;;;;;;;5005815;28;20039;-73
2021/03/07 07:05:51;;;;;;;4.40;3.42;;;;;;;;;;5005813;28;20130;-73
2021/03/07 07:08:17;;;;;;;4.45;3.28;;;;;;;;;;5005368;28;20039;-73
2021/03/07 07:10:49;;;;;;;5.13;2.92;;;;;;;;;;5006301;28;20058;-73
2021/03/07 07:13:14;;;;;;;4.87;3.50;;;;;;;;;;4977096;28;20038;-73
2021/03/07 07:16:14;;;;;;;5.10;3.55;;;;;;;;;;4989778;28;20863;-73
2021/03/07 07:18:45;;;;;;;5.40;3.40;;;;;;;;;;5006302;28;21220;-72
2021/03/07 07:21:12;;;;;;;4.95;3.67;;;;;;;;;;4995879;28;20542;-73
2021/03/07 07:23:37;;;;;;;4.60;3.58;;;;;;;;;;5011579;28;20046;-72
2021/03/07 07:26:03;;;;;;;4.82;3.40;;;;;;;;;;4993914;28;20060;-72
2021/03/07 07:28:30;;;;;;;4.68;3.13;;;;;;;;;;5008824;28;20030;-73
2021/03/07 07:31:00;;;;;;;4.15;3.08;;;;;;;;;;5024962;28;20026;-73
2021/03/07 07:33:44;;;;;;;3.30;2.55;;;;;;;;;;5024771;28;20047;-73
2021/03/07 07:36:12;;;;;;;5.13;3.65;;;;;;;;;;4974029;28;20118;-72
2021/03/07 07:38:37;;;;;;;5.55;3.85;;;;;;;;;;5004696;28;20039;-72
2021/03/07 07:41:03;;;;;;;6.95;3.95;;;;;;;;;;5005027;28;20572;-73
2021/03/07 07:43:48;;;;;;;6.07;3.67;;;;;;;;;;5005223;28;20062;-73
2021/03/07 07:46:13;;;;;;;5.28;3.42;;;;;;;;;;4988907;28;20039;-73
2021/03/07 07:48:39;;;;;;;6.72;3.47;;;;;;;;;;5004784;28;20106;-73
2021/03/07 07:51:33;;;;;;;4.90;3.08;;;;;;;;;;4987812;28;20046;-73
2021/03/07 07:53:59;;;;;;;11.48;4.70;;;;;;;;;;5014961;28;20046;-73
2021/03/07 07:56:38;;;;;;;21.35;6.10;;;;;;;;;;5019277;28;20034;-73
2021/03/07 07:59:06;;;;;;;13.60;4.53;;;;;;;;;;5007956;28;20050;-73
2021/03/07 08:01:46;;;;;;;10.75;4.47;;;;;;;;;;5006647;28;20046;-72
2021/03/07 08:04:41;;;;;;;9.95;4.40;;;;;;;;;;4978843;28;20417;-72
2021/03/07 08:07:07;;;;;;;12.73;4.30;;;;;;;;;;4991061;28;20129;-72
2021/03/07 08:09:33;;;;;;;13.93;4.40;;;;;;;;;;5011484;28;20046;-73
2021/03/07 08:11:58;;;;;;;7.18;3.78;;;;;;;;;;4973325;28;20117;-73
2021/03/07 08:14:44;;;;;;;8.40;3.45;;;;;;;;;;4993338;28;20042;-73
2021/03/07 08:17:09;;;;;;;10.90;4.40;;;;;;;;;;4974740;28;20054;-73
2021/03/07 08:19:41;;;;;;;8.43;3.88;;;;;;;;;;4994020;28;20045;-73
2021/03/07 08:22:08;;;;;;;5.80;3.60;;;;;;;;;;4996113;28;20050;-73
2021/03/07 08:24:55;;;;;;;7.60;3.75;;;;;;;;;;5020420;28;20038;-73
2021/03/07 08:27:40;;;;;;;7.70;3.88;;;;;;;;;;5004092;28;20043;-72
2021/03/07 08:30:10;;;;;;;7.88;3.33;;;;;;;;;;5004200;28;20409;-73
2021/03/07 08:32:42;;;;;;;7.90;3.58;;;;;;;;;;5020603;28;20031;-73
2021/03/07 08:35:19;;;;;;;7.40;3.40;;;;;;;;;;4972965;28;20473;-73
2021/03/07 08:38:14;;;;;;;7.00;3.33;;;;;;;;;;5004172;28;20110;-73
2021/03/07 08:40:41;;;;;;;8.95;4.60;;;;;;;;;;5004056;28;20135;-73
2021/03/07 08:43:22;;;;;;;10.48;6.03;;;;;;;;;;5021219;28;20134;-73
2021/03/07 08:46:03;;;;;;;11.98;7.45;;;;;;;;;;4979506;28;20117;-74
2021/03/07 08:48:29;;;;;;;8.98;8.07;;;;;;;;;;4991677;28;20062;-74
2021/03/07 08:50:55;;;;;;;10.75;9.25;;;;;;;;;;5006497;28;20065;-74
2021/03/07 08:53:31;;;;;;;9.43;8.43;;;;;;;;;;4991302;28;20121;-74
2021/03/07 08:55:56;;;;;;;9.70;8.73;;;;;;;;;;4991845;28;20057;-74
2021/03/07 08:58:22;;;;;;;11.98;9.02;;;;;;;;;;5003802;28;20038;-74
2021/03/07 09:00:50;;;;;;;11.90;8.77;;;;;;;;;;5003897;28;20039;-75
2021/03/07 09:03:15;;;;;;;11.32;7.72;;;;;;;;;;4987747;28;20437;-76
2021/03/07 09:05:41;;;;;;;8.20;7.38;;;;;;;;;;4990205;28;20096;-75
2021/03/07 09:08:07;;;;;;;9.38;8.30;;;;;;;;;;4973642;28;20042;-76
2021/03/07 09:10:44;;;;;;;9.43;6.28;;;;;;;;;;4973511;28;20038;-76
2021/03/07 09:13:10;;;;;;;11.43;6.13;;;;;;;;;;4973846;28;20038;-75
2021/03/07 09:15:37;;;;;;;9.75;6.45;;;;;;;;;;4989619;28;20043;-74
2021/03/07 09:18:03;;;;;;;6.70;5.88;;;;;;;;;;4973221;28;20062;-74
2021/03/07 09:20:51;;;;;;;9.82;5.82;;;;;;;;;;4972994;28;20091;-74
2021/03/07 09:23:33;;;;;;;10.60;8.90;;;;;;;;;;5006136;28;20113;-74
2021/03/07 09:25:59;;;;;;;12.52;8.95;;;;;;;;;;4989264;28;20038;-74
2021/03/07 09:28:38;;;;;;;11.27;8.60;;;;;;;;;;4973555;28;20034;-74
2021/03/07 09:31:05;;;;;;;12.02;7.35;;;;;;;;;;4989565;28;20074;-74
2021/03/07 09:33:31;;;;;;;12.07;7.15;;;;;;;;;;4989196;28;20038;-74
2021/03/07 09:36:10;;;;;;;11.43;7.85;;;;;;;;;;4973422;28;20583;-74
2021/03/07 09:39:03;;;;;;;11.82;6.63;;;;;;;;;;4973700;28;20030;-75
2021/03/07 09:41:43;;;;;;;11.52;6.15;;;;;;;;;;4979618;28;20046;-75
2021/03/07 09:44:11;;;;;;;8.60;6.35;;;;;;;;;;4977609;28;20041;-75
2021/03/07 09:46:36;;;;;;;10.48;6.35;;;;;;;;;;4961033;28;20247;-73
2021/03/07 09:49:05;;;;;;;9.77;5.88;;;;;;;;;;4976431;28;20046;-73
2021/03/07 09:51:36;;;;;;;7.00;5.13;;;;;;;;;;4977110;28;20034;-73
2021/03/07 09:54:02;;;;;;;7.75;5.07;;;;;;;;;;4976675;28;20416;-73
2021/03/07 09:56:32;;;;;;;7.32;5.10;;;;;;;;;;4976843;28;20046;-73
2021/03/07 09:59:10;;;;;;;9.23;5.30;;;;;;;;;;4976985;28;20101;-73
2021/03/07 10:01:42;;;;;;;6.63;4.78;;;;;;;;;;4992480;28;20049;-72
2021/03/07 10:04:46;;;;;;;7.07;4.82;;;;;;;;;;4991762;28;20046;-74
2021/03/07 10:07:25;;;;;;;6.47;4.18;;;;;;;;;;4972899;28;20062;-73
2021/03/07 10:10:11;;;;;;;9.88;4.97;;;;;;;;;;4989909;28;20038;-73
2021/03/07 10:12:55;;;;;;;6.38;4.43;;;;;;;;;;4976784;28;20563;-73
2021/03/07 10:15:27;;;;;;;6.32;4.60;;;;;;;;;;4992470;28;20035;-73
2021/03/07 10:17:52;;;;;;;18.25;4.13;;;;;;;;;;4992355;28;20045;-72
2021/03/07 10:20:18;;;;;;;5.80;3.38;;;;;;;;;;4991646;28;20393;-73
2021/03/07 10:22:44;;;;;;;8.65;4.30;;;;;;;;;;5025776;28;20084;-73
2021/03/07 10:25:34;;;;;;;7.28;3.38;;;;;;;;;;4976626;28;20035;-73
2021/03/07 10:28:00;;;;;;;6.20;3.20;;;;;;;;;;4991549;28;20035;-73
2021/03/07 10:30:42;;;;;;;7.15;3.17;;;;;;;;;;5007187;28;20401;-72
2021/03/07 10:33:23;;;;;;;6.95;3.50;;;;;;;;;;4977003;28;20523;-72
2021/03/07 10:36:03;;;;;;;6.15;4.07;;;;;;;;;;4992669;28;20113;-72
2021/03/07 10:38:36;;;;;;;7.28;4.63;;;;;;;;;;5007542;28;20504;-72
2021/03/07 10:41:20;;;;;;;6.38;4.95;;;;;;;;;;4992420;28;20070;-73
2021/03/07 10:43:50;;;;;;;7.57;5.72;;;;;;;;;;4993322;28;20076;-72
2021/03/07 10:46:34;;;;;;;6.63;5.22;;;;;;;;;;5007145;28;20053;-72
2021/03/07 10:49:01;;;;;;;7.05;5.32;;;;;;;;;;4992681;28;20062;-72
2021/03/07 10:51:27;;;;;;;7.57;5.50;;;;;;;;;;4975825;28;20057;-72
2021/03/07 10:53:52;;;;;;;8.07;5.07;;;;;;;;;;4975722;28;20038;-72
2021/03/07 10:56:18;;;;;;;6.63;5.15;;;;;;;;;;4959714;28;20401;-72
2021/03/07 10:58:44;;;;;;;7.40;5.13;;;;;;;;;;4975975;28;20030;-72
2021/03/07 11:01:14;;;;;;;7.60;5.28;;;;;;;;;;4974791;28;20097;-72
2021/03/07 11:03:39;;;;;;;7.57;5.18;;;;;;;;;;4975256;28;20056;-72
2021/03/07 11:06:05;;;;;;;6.68;4.95;;;;;;;;;;4991630;28;20549;-72
2021/03/07 11:08:30;;;;;;;7.35;6.25;;;;;;;;;;4991445;28;20041;-73
2021/03/07 11:10:56;;;;;;;8.45;5.72;;;;;;;;;;4990859;28;20057;-72
2021/03/07 11:13:21;;;;;;;5.63;4.38;;;;;;;;;;5024142;28;20038;-72
2021/03/07 11:15:47;;;;;;;7.40;5.72;;;;;;;;;;4987840;28;20050;-73
2021/03/07 11:18:12;;;;;;;7.93;5.10;;;;;;;;;;4973355;28;20404;-73
2021/03/07 11:20:38;;;;;;;6.25;4.45;;;;;;;;;;4990586;28;20513;-73
2021/03/07 11:23:03;;;;;;;7.07;5.18;;;;;;;;;;4975151;28;20046;-73
2021/03/07 11:25:28;;;;;;;7.10;5.95;;;;;;;;;;4973080;28;20046;-72
2021/03/07 11:27:54;;;;;;;7.00;5.05;;;;;;;;;;4973619;28;20405;-73
2021/03/07 11:30:20;;;;;;;7.53;6.30;;;;;;;;;;4989999;28;20378;-72
2021/03/07 11:32:45;;;;;;;9.32;7.18;;;;;;;;;;5006136;28;20038;-72
2021/03/07 11:35:11;;;;;;;9.35;7.57;;;;;;;;;;4989619;28;20076;-72
2021/03/07 11:37:36;;;;;;;9.57;6.80;;;;;;;;;;4991149;28;20117;-72
2021/03/07 11:40:03;;;;;;;8.55;5.80;;;;;;;;;;4974782;28;20125;-73
2021/03/07 11:42:28;;;;;;;8.52;6.30;;;;;;;;;;4975221;28;20404;-72
2021/03/07 11:44:54;;;;;;;7.93;6.10;;;;;;;;;;4990829;28;20030;-72
2021/03/07 11:47:21;;;;;;;8.07;5.72;;;;;;;;;;4974733;28;20504;-73
2021/03/07 11:49:46;;;;;;;8.20;5.80;;;;;;;;;;4991681;28;20069;-72
2021/03/07 11:52:12;;;;;;;8.35;5.30;;;;;;;;;;4958339;28;20421;-73
2021/03/07 11:54:38;;;;;;;9.77;5.43;;;;;;;;;;4975120;28;20412;-72
2021/03/07 11:57:04;;;;;;;9.13;4.68;;;;;;;;;;4988508;28;20424;-73
2021/03/07 11:59:30;;;;;;;7.88;4.40;;;;;;;;;;4974301;28;20065;-72
2021/03/07 12:01:55;;;;;;;7.45;4.45;;;;;;;;;;4957608;28;20030;-73
2021/03/07 12:04:21;;;;;;;7.70;4.72;;;;;;;;;;5023124;28;20042;-72
2021/03/07 12:06:47;;;;;;;7.03;5.15;;;;;;;;;;4974332;28;20408;-73
2021/03/07 12:09:12;;;;;;;7.30;4.53;;;;;;;;;;4974121;28;20884;-73
2021/03/07 12:11:37;;;;;;;5.78;4.05;;;;;;;;;;4973571;28;20080;-74
2021/03/07 12:14:03;;;;;;;7.07;5.68;;;;;;;;;;4972856;28;20042;-74
2021/03/07 12:16:29;;;;;;;9.65;7.05;;;;;;;;;;4990325;28;20031;-74
2021/03/07 12:18:54;;;;;;;7.45;6.75;;;;;;;;;;4957855;28;20042;-74
2021/03/07 12:21:20;;;;;;;7.65;6.85;;;;;;;;;;5022764;28;20121;-74
2021/03/07 12:23:45;;;;;;;10.38;8.40;;;;;;;;;;4958020;28;20062;-74
2021/03/07 12:26:10;;;;;;;11.82;10.05;;;;;;;;;;4957687;28;20045;-74
2021/03/07 12:28:36;;;;;;;12.95;10.52;;;;;;;;;;4973210;28;20046;-74
2021/03/07 12:31:01;;;;;;;11.05;8.75;;;;;;;;;;5022022;28;20065;-74
2021/03/07 12:33:27;;;;;;;10.27;8.38;;;;;;;;;;4973810;28;20940;-74
2021/03/07 12:35:54;;;;;;;12.20;8.98;;;;;;;;;;5006634;28;20042;-74
2021/03/07 12:38:20;;;;;;;12.35;10.05;;;;;;;;;;5005806;28;20035;-74
2021/03/07 12:40:45;;;;;;;11.13;8.75;;;;;;;;;;4973596;28;20038;-74
2021/03/07 12:43:11;;;;;;;11.77;9.05;;;;;;;;;;4973951;28;20421;-74
2021/03/07 12:45:36;;;;;;;9.57;7.55;;;;;;;;;;4973697;28;20066;-74
2021/03/07 12:48:01;;;;;;;12.02;7.85;;;;;;;;;;4989529;28;20042;-74
2021/03/07 12:50:27;;;;;;;9.63;7.13;;;;;;;;;;4973429;28;20460;-74
2021/03/07 12:52:52;;;;;;;9.85;6.95;;;;;;;;;;4973602;28;20054;-74
2021/03/07 12:55:18;;;;;;;10.70;6.85;;;;;;;;;;4989437;28;20030;-74
2021/03/07 12:57:43;;;;;;;9.40;5.85;;;;;;;;;;4990833;28;20039;-74
2021/03/07 13:00:09;;;;;;;9.15;6.22;;;;;;;;;;4972028;28;20030;-74
2021/03/07 13:02:35;;;;;;;9.63;5.90;;;;;;;;;;4989836;28;20065;-75
2021/03/07 13:05:00;;;;;;;8.02;5.45;;;;;;;;;;4989634;28;20505;-74
2021/03/07 13:07:26;;;;;;;7.72;5.60;;;;;;;;;;5022726;28;20684;-74
2021/03/07 13:09:51;;;;;;;7.97;5.53;;;;;;;;;;4973648;28;20118;-75
2021/03/07 13:12:17;;;;;;;7.00;4.57;;;;;;;;;;4989577;28;20046;-74
2021/03/07 13:14:42;;;;;;;8.60;5.32;;;;;;;;;;4975631;28;20567;-74
2021/03/07 13:17:07;;;;;;;9.63;4.90;;;;;;;;;;4977664;28;20042;-75
2021/03/07 13:19:33;;;;;;;7.07;4.55;;;;;;;;;;4960656;28;20387;-75
2021/03/07 13:21:59;;;;;;;6.10;3.90;;;;;;;;;;4961421;28;20046;-74
2021/03/07 13:24:24;;;;;;;5.90;4.13;;;;;;;;;;4960781;28;20085;-74
2021/03/07 13:26:50;;;;;;;6.53;4.70;;;;;;;;;;4977354;28;20042;-74
2021/03/07 13:29:15;;;;;;;7.82;4.80;;;;;;;;;;4961376;28;20038;-74
2021/03/07 13:31:41;;;;;;;6.72;4.70;;;;;;;;;;4976610;28;20089;-74
2021/03/07 13:34:06;;;;;;;7.07;4.60;;;;;;;;;;4960941;28;20116;-74
2021/03/07 13:36:32;;;;;;;5.25;3.60;;;;;;;;;;4977343;28;20072;-74
2021/03/07 13:38:57;;;;;;;6.55;4.63;;;;;;;;;;4992641;28;20113;-74
2021/03/07 13:41:23;;;;;;;7.43;5.28;;;;;;;;;;4977157;28;20086;-74
2021/03/07 13:43:48;;;;;;;10.90;6.97;;;;;;;;;;4960969;28;20061;-74
2021/03/07 13:46:13;;;;;;;7.57;6.07;;;;;;;;;;4976983;28;20434;-74
2021/03/07 13:48:39;;;;;;;11.10;8.25;;;;;;;;;;4976889;28;20033;-74
2021/03/07 13:51:04;;;;;;;11.13;8.50;;;;;;;;;;4976703;28;20046;-74
2021/03/07 13:53:30;;;;;;;12.65;8.85;;;;;;;;;;4976592;28;20499;-74
2021/03/07 13:55:55;;;;;;;11.05;8.30;;;;;;;;;;4976830;28;20069;-74
2021/03/07 13:58:21;;;;;;;10.88;7.85;;;;;;;;;;4992158;28;20089;-74
2021/03/07 14:00:46;;;;;;;11.77;8.20;;;;;;;;;;5024914;28;20056;-74
2021/03/07 14:03:12;;;;;;;11.27;8.07;;;;;;;;;;4976583;28;20613;-74
2021/03/07 14:05:37;;;;;;;8.88;7.32;;;;;;;;;;4992779;28;20104;-74
2021/03/07 14:08:03;;;;;;;9.55;6.72;;;;;;;;;;4991752;28;20505;-74
2021/03/07 14:10:28;;;;;;;12.27;7.20;;;;;;;;;;4976531;28;20042;-74
2021/03/07 14:12:54;;;;;;;8.43;6.90;;;;;;;;;;4960460;28;20138;-74
2021/03/07 14:15:19;;;;;;;9.13;7.35;;;;;;;;;;4992683;28;20046;-74
2021/03/07 14:17:45;;;;;;;9.90;6.85;;;;;;;;;;4976746;28;20065;-74
2021/03/07 14:20:12;;;;;;;10.30;7.20;;;;;;;;;;4976009;28;20038;-74
2021/03/07 14:22:37;;;;;;;11.15;8.30;;;;;;;;;;4959965;28;20051;-74
2021/03/07 14:25:05;;;;;;;10.93;9.10;;;;;;;;;;4990879;28;20042;-74
2021/03/07 14:27:30;;;;;;;11.68;8.82;;;;;;;;;;4976666;28;20527;-74
2021/03/07 14:29:55;;;;;;;11.38;8.68;;;;;;;;;;4993529;28;20038;-74
2021/03/07 14:32:21;;;;;;;11.18;8.48;;;;;;;;;;4976045;28;20049;-74
2021/03/07 14:34:46;;;;;;;9.52;8.43;;;;;;;;;;4975940;28;20050;-74
2021/03/07 14:37:12;;;;;;;9.75;8.75;;;;;;;;;;4993329;28;20047;-74
2021/03/07 14:39:37;;;;;;;11.52;9.25;;;;;;;;;;4975957;28;20046;-74
2021/03/07 14:42:03;;;;;;;9.77;8.77;;;;;;;;;;4991635;28;20061;-74
2021/03/07 14:44:30;;;;;;;10.23;8.18;;;;;;;;;;5008508;28;20038;-74
2021/03/07 14:46:55;;;;;;;9.80;8.80;;;;;;;;;;4992262;28;20034;-74